createdAt,value
2023-03-20T00:01:09.272Z,398
2023-03-20T00:03:14.674Z,399
2023-03-20T00:05:20.082Z,402
2023-03-20T00:07:26.617Z,396
2023-03-20T00:09:32.074Z,396
2023-03-20T00:11:37.898Z,394
2023-03-20T00:13:43.261Z,397
2023-03-20T00:15:49.071Z,405
2023-03-20T00:17:54.397Z,406
2023-03-20T00:19:59.858Z,406
2023-03-20T00:22:05.368Z,406
2023-03-20T00:24:10.904Z,406
2023-03-20T00:26:16.329Z,406
2023-03-20T00:28:21.695Z,406
2023-03-20T00:30:27.054Z,406
2023-03-20T00:32:32.589Z,405
2023-03-20T00:34:38.149Z,406
2023-03-20T00:36:45.346Z,405
2023-03-20T00:38:50.639Z,362
2023-03-20T00:40:55.770Z,404
2023-03-20T00:43:01.494Z,404
2023-03-20T00:45:06.826Z,393
2023-03-20T00:47:12.191Z,396
2023-03-20T00:49:17.310Z,393
2023-03-20T00:51:23.040Z,398
2023-03-20T00:53:28.450Z,403
2023-03-20T00:55:34.307Z,396
2023-03-20T00:57:40.134Z,394
2023-03-20T00:59:45.341Z,393
2023-03-20T01:01:52.843Z,397
2023-03-20T01:03:58.431Z,402
2023-03-20T01:06:03.761Z,397
2023-03-20T01:08:09.162Z,396
2023-03-20T01:10:14.490Z,394
2023-03-20T01:12:21.047Z,396
2023-03-20T01:14:26.712Z,390
2023-03-20T01:16:32.295Z,397
2023-03-20T01:18:37.653Z,397
2023-03-20T01:20:42.796Z,393
2023-03-20T01:22:50.133Z,399
2023-03-20T01:24:55.543Z,399
2023-03-20T01:27:01.116Z,398
2023-03-20T01:29:06.499Z,399
2023-03-20T01:31:11.902Z,399
2023-03-20T01:33:17.391Z,398
2023-03-20T01:35:22.698Z,397
2023-03-20T01:37:28.146Z,367
2023-03-20T01:39:33.869Z,378
2023-03-20T01:41:39.259Z,368
2023-03-20T01:43:44.934Z,379
2023-03-20T01:45:50.500Z,379
2023-03-20T01:47:56.010Z,381
2023-03-20T01:50:01.491Z,381
2023-03-20T01:52:06.867Z,381
2023-03-20T01:54:12.053Z,381
2023-03-20T01:56:17.540Z,381
2023-03-20T01:58:22.822Z,382
2023-03-20T02:00:29.288Z,382
2023-03-20T02:02:34.606Z,382
2023-03-20T02:04:40.200Z,384
2023-03-20T02:06:45.801Z,384
2023-03-20T02:08:51.075Z,382
2023-03-20T02:10:56.694Z,387
2023-03-20T02:13:02.383Z,386
2023-03-20T02:15:07.708Z,386
2023-03-20T02:17:12.873Z,386
2023-03-20T02:19:18.053Z,385
2023-03-20T02:21:23.395Z,384
2023-03-20T02:23:28.917Z,384
2023-03-20T02:25:34.488Z,382
2023-03-20T02:27:40.310Z,384
2023-03-20T02:29:45.882Z,382
2023-03-20T02:31:51.585Z,384
2023-03-20T02:33:56.878Z,380
2023-03-20T02:36:02.264Z,381
2023-03-20T02:38:08.781Z,382
2023-03-20T02:40:14.076Z,379
2023-03-20T02:42:19.468Z,384
2023-03-20T02:44:25.017Z,382
2023-03-20T02:46:31.613Z,381
2023-03-20T02:48:37.410Z,381
2023-03-20T02:50:42.712Z,386
2023-03-20T02:52:49.359Z,384
2023-03-20T02:54:54.532Z,386
2023-03-20T02:57:00.051Z,384
2023-03-20T02:59:06.550Z,388
2023-03-20T03:01:12.089Z,382
2023-03-20T03:03:17.472Z,382
2023-03-20T03:05:22.727Z,382
2023-03-20T03:07:28.072Z,382
2023-03-20T03:09:33.370Z,382
2023-03-20T03:11:39.637Z,382
2023-03-20T03:13:45.221Z,382
2023-03-20T03:15:50.777Z,382
2023-03-20T03:17:56.298Z,382
2023-03-20T03:20:01.472Z,382
2023-03-20T03:22:07.045Z,382
2023-03-20T03:24:12.325Z,382
2023-03-20T03:26:17.535Z,376
2023-03-20T03:28:22.828Z,375
2023-03-20T03:30:28.337Z,382
2023-03-20T03:32:33.767Z,384
2023-03-20T03:34:39.262Z,384
2023-03-20T03:36:46.691Z,369
2023-03-20T03:38:51.892Z,377
2023-03-20T03:40:57.412Z,378
2023-03-20T03:43:02.670Z,379
2023-03-20T03:45:09.080Z,384
2023-03-20T03:47:14.605Z,384
2023-03-20T03:49:19.970Z,384
2023-03-20T03:51:25.216Z,384
2023-03-20T03:53:30.621Z,384
2023-03-20T03:55:36.824Z,374
2023-03-20T03:57:43.091Z,375
2023-03-20T03:59:48.546Z,376
2023-03-20T04:01:53.952Z,376
2023-03-20T04:03:59.503Z,377
2023-03-20T04:06:05.932Z,394
2023-03-20T04:08:11.438Z,396
2023-03-20T04:10:18.395Z,394
2023-03-20T04:12:24.448Z,393
2023-03-20T04:14:29.777Z,393
2023-03-20T04:16:35.209Z,393
2023-03-20T04:18:40.580Z,389
2023-03-20T04:20:48.056Z,393
2023-03-20T04:22:53.290Z,394
2023-03-20T04:24:58.902Z,393
2023-03-20T04:27:04.436Z,394
2023-03-20T04:29:09.854Z,396
2023-03-20T04:31:15.490Z,396
2023-03-20T04:33:20.940Z,393
2023-03-20T04:35:26.361Z,393
2023-03-20T04:37:31.669Z,393
2023-03-20T04:39:36.985Z,396
2023-03-20T04:41:42.458Z,397
2023-03-20T04:43:47.772Z,397
2023-03-20T04:45:53.128Z,397
2023-03-20T04:47:59.521Z,397
2023-03-20T04:50:04.934Z,397
2023-03-20T04:52:10.254Z,397
2023-03-20T04:54:15.682Z,397
2023-03-20T04:56:21.137Z,397
2023-03-20T04:58:26.677Z,397
2023-03-20T05:00:32.226Z,397
2023-03-20T05:02:37.401Z,397
2023-03-20T05:04:42.700Z,396
2023-03-20T05:06:48.020Z,396
2023-03-20T05:08:53.248Z,396
2023-03-20T05:10:58.528Z,394
2023-03-20T05:13:03.852Z,394
2023-03-20T05:15:09.130Z,394
2023-03-20T05:17:14.506Z,394
2023-03-20T05:19:19.792Z,396
2023-03-20T05:21:26.364Z,396
2023-03-20T05:23:31.908Z,393
2023-03-20T05:25:38.365Z,394
2023-03-20T05:27:43.524Z,396
2023-03-20T05:29:48.847Z,392
2023-03-20T05:31:54.488Z,360
2023-03-20T05:33:59.962Z,394
2023-03-20T05:36:05.342Z,394
2023-03-20T05:38:10.913Z,392
2023-03-20T05:40:16.365Z,393
2023-03-20T05:42:21.736Z,392
2023-03-20T05:44:27.338Z,388
2023-03-20T05:46:33.280Z,392
2023-03-20T05:48:38.797Z,393
2023-03-20T05:50:44.151Z,393
2023-03-20T05:52:49.395Z,392
2023-03-20T05:54:55.863Z,393
2023-03-20T05:57:02.168Z,393
2023-03-20T05:59:07.876Z,393
2023-03-20T06:01:13.368Z,393
2023-03-20T06:03:18.913Z,391
2023-03-20T06:05:24.897Z,394
2023-03-20T06:07:30.051Z,393
2023-03-20T06:09:35.572Z,394
2023-03-20T06:11:40.988Z,394
2023-03-20T06:13:46.413Z,393
2023-03-20T06:15:51.799Z,393
2023-03-20T06:17:57.490Z,392
2023-03-20T06:20:04.044Z,393
2023-03-20T06:22:09.465Z,392
2023-03-20T06:24:18.133Z,393
2023-03-20T06:26:24.001Z,391
2023-03-20T06:28:29.402Z,388
2023-03-20T06:30:35.076Z,391
2023-03-20T06:32:43.871Z,392
2023-03-20T06:34:49.416Z,394
2023-03-20T06:36:55.049Z,388
2023-03-20T06:39:00.348Z,374
2023-03-20T06:41:06.255Z,374
2023-03-20T06:43:11.877Z,375
2023-03-20T06:45:17.296Z,377
2023-03-20T06:47:22.849Z,378
2023-03-20T06:49:28.270Z,377
2023-03-20T06:51:36.816Z,377
2023-03-20T06:53:43.278Z,377
2023-03-20T06:55:48.737Z,377
2023-03-20T06:57:54.286Z,382
2023-03-20T06:59:59.559Z,388
2023-03-20T07:02:04.963Z,384
2023-03-20T07:04:10.396Z,386
2023-03-20T07:06:16.779Z,386
2023-03-20T07:08:22.013Z,387
2023-03-20T07:10:27.380Z,376
2023-03-20T07:12:32.860Z,378
2023-03-20T07:14:39.162Z,387
2023-03-20T07:16:44.700Z,381
2023-03-20T07:18:50.111Z,384
2023-03-20T07:20:55.568Z,382
2023-03-20T07:23:01.276Z,378
2023-03-20T07:25:06.617Z,375
2023-03-20T07:27:12.065Z,384
2023-03-20T07:29:17.793Z,384
2023-03-20T07:31:23.657Z,384
2023-03-20T07:33:29.404Z,384
2023-03-20T07:35:37.709Z,384
2023-03-20T07:37:43.639Z,384
2023-03-20T07:39:49.071Z,384
2023-03-20T07:41:54.834Z,360
2023-03-20T07:44:00.326Z,381
2023-03-20T07:46:06.144Z,382
2023-03-20T07:48:11.953Z,382
2023-03-20T07:50:18.423Z,382
2023-03-20T07:52:23.832Z,384
2023-03-20T07:54:30.014Z,382
2023-03-20T07:56:35.811Z,382
2023-03-20T07:58:42.431Z,384
2023-03-20T08:00:48.282Z,384
2023-03-20T08:03:08.511Z,384
2023-03-20T08:05:15.991Z,384
2023-03-20T08:07:23.080Z,384
2023-03-20T08:09:28.967Z,384
2023-03-20T08:11:36.857Z,386
2023-03-20T08:13:42.784Z,387
2023-03-20T08:15:49.200Z,387
2023-03-20T08:17:54.937Z,387
2023-03-20T08:20:00.656Z,387
2023-03-20T08:22:08.586Z,387
2023-03-20T08:24:14.102Z,387
2023-03-20T08:26:20.042Z,387
2023-03-20T08:28:50.063Z,387
2023-03-20T08:30:57.139Z,388
2023-03-20T08:33:03.314Z,388
2023-03-20T08:35:25.994Z,387
2023-03-20T08:37:39.546Z,388
2023-03-20T08:39:45.178Z,387
2023-03-20T08:41:50.790Z,388
2023-03-20T08:43:56.513Z,387
2023-03-20T08:46:02.061Z,387
2023-03-20T08:48:07.318Z,387
2023-03-20T08:50:13.146Z,387
2023-03-20T08:52:19.655Z,387
2023-03-20T08:54:25.179Z,388
2023-03-20T08:56:30.566Z,387
2023-03-20T08:58:36.247Z,387
2023-03-20T09:00:43.049Z,387
2023-03-20T09:02:48.845Z,387
2023-03-20T09:04:54.407Z,389
2023-03-20T09:06:59.897Z,387
2023-03-20T09:09:08.393Z,388
2023-03-20T09:11:13.631Z,387
2023-03-20T09:13:29.650Z,387
2023-03-20T09:15:36.148Z,388
2023-03-20T09:17:42.220Z,387
2023-03-20T09:19:47.720Z,387
2023-03-20T09:21:54.483Z,387
2023-03-20T09:24:03.220Z,388
2023-03-20T09:26:15.605Z,387
2023-03-20T09:28:22.749Z,387
2023-03-20T09:30:55.456Z,388
2023-03-20T09:33:54.900Z,387
2023-03-20T09:36:00.553Z,387
2023-03-20T09:38:06.262Z,388
2023-03-20T09:40:22.996Z,388
2023-03-20T09:42:35.110Z,387
2023-03-20T09:44:46.636Z,388
2023-03-20T09:46:56.855Z,388
2023-03-20T09:49:22.977Z,387
2023-03-20T09:51:28.435Z,387
2023-03-20T09:53:33.901Z,388
2023-03-20T09:55:40.717Z,387
2023-03-20T09:57:46.242Z,388
2023-03-20T09:59:52.427Z,388
2023-03-20T10:01:57.910Z,388
2023-03-20T10:04:03.650Z,388
2023-03-20T10:06:09.489Z,388
2023-03-20T10:08:18.652Z,388
2023-03-20T10:10:24.089Z,388
2023-03-20T10:12:29.669Z,388
2023-03-20T10:14:34.888Z,388
2023-03-20T10:16:40.819Z,388
2023-03-20T10:18:46.586Z,388
2023-03-20T10:20:53.295Z,388
2023-03-20T10:22:58.629Z,388
2023-03-20T10:25:04.672Z,388
2023-03-20T10:27:10.295Z,388
2023-03-20T10:29:15.560Z,388
2023-03-20T10:31:22.242Z,387
2023-03-20T10:33:27.906Z,387
2023-03-20T10:35:33.425Z,388
2023-03-20T10:37:39.053Z,388
2023-03-20T10:39:44.418Z,388
2023-03-20T10:41:50.834Z,387
2023-03-20T10:43:56.346Z,388
2023-03-20T10:46:02.873Z,388
2023-03-20T10:48:08.676Z,387
2023-03-20T10:50:14.152Z,387
2023-03-20T10:52:20.219Z,387
2023-03-20T10:54:26.812Z,387
2023-03-20T10:56:33.110Z,387
2023-03-20T10:58:38.653Z,388
2023-03-20T11:00:44.510Z,388
2023-03-20T11:02:50.914Z,388
2023-03-20T11:04:56.982Z,388
2023-03-20T11:07:02.745Z,388
2023-03-20T11:09:08.365Z,387
2023-03-20T11:11:20.137Z,387
2023-03-20T11:13:25.924Z,388
2023-03-20T11:15:32.408Z,387
2023-03-20T11:17:37.803Z,387
2023-03-20T11:19:43.048Z,387
2023-03-20T11:21:49.641Z,387
2023-03-20T11:23:54.927Z,387
2023-03-20T11:26:00.345Z,387
2023-03-20T11:28:06.157Z,387
2023-03-20T11:30:12.523Z,387
2023-03-20T11:32:18.422Z,387
2023-03-20T11:34:24.148Z,387
2023-03-20T11:36:30.899Z,387
2023-03-20T11:38:36.212Z,387
2023-03-20T11:40:41.654Z,388
2023-03-20T11:42:47.236Z,388
2023-03-20T11:44:54.127Z,387
2023-03-20T11:47:00.028Z,388
2023-03-20T11:49:05.816Z,387
2023-03-20T11:51:11.502Z,387
2023-03-20T11:53:16.720Z,387
2023-03-20T11:55:22.224Z,386
2023-03-20T11:57:27.930Z,387
2023-03-20T11:59:35.637Z,387
2023-03-20T12:01:40.961Z,386
2023-03-20T12:03:49.108Z,386
2023-03-20T12:05:54.779Z,386
2023-03-20T12:08:01.045Z,386
2023-03-20T12:10:07.249Z,386
2023-03-20T12:12:12.808Z,386
2023-03-20T12:14:18.379Z,386
2023-03-20T12:16:23.758Z,386
2023-03-20T12:18:29.620Z,386
2023-03-20T12:20:37.371Z,386
2023-03-20T12:22:43.488Z,386
2023-03-20T12:24:51.326Z,386
2023-03-20T12:26:56.905Z,386
2023-03-20T12:29:02.595Z,386
2023-03-20T12:31:08.700Z,386
2023-03-20T12:33:15.208Z,382
2023-03-20T12:35:20.936Z,381
2023-03-20T12:37:27.227Z,381
2023-03-20T12:39:33.423Z,375
2023-03-20T12:41:39.559Z,368
2023-03-20T12:43:45.642Z,376
2023-03-20T12:45:51.436Z,377
2023-03-20T12:47:58.212Z,376
2023-03-20T12:50:03.682Z,378
2023-03-20T12:52:09.108Z,377
2023-03-20T12:54:15.844Z,378
2023-03-20T12:56:22.615Z,378
2023-03-20T12:58:28.247Z,378
2023-03-20T13:00:35.289Z,378
2023-03-20T13:02:42.011Z,378
2023-03-20T13:04:47.705Z,379
2023-03-20T13:06:52.959Z,384
2023-03-20T13:08:59.486Z,384
2023-03-20T13:11:04.921Z,382
2023-03-20T13:13:10.544Z,369
2023-03-20T13:15:17.185Z,376
2023-03-20T13:17:25.418Z,378
2023-03-20T13:19:30.963Z,381
2023-03-20T13:21:39.806Z,381
2023-03-20T13:23:45.372Z,381
2023-03-20T13:25:50.821Z,382
2023-03-20T13:27:56.490Z,382
2023-03-20T13:30:02.396Z,381
2023-03-20T13:32:09.678Z,381
2023-03-20T13:34:15.154Z,372
2023-03-20T13:36:21.234Z,376
2023-03-20T13:38:26.560Z,379
2023-03-20T13:40:33.047Z,379
2023-03-20T13:42:39.315Z,379
2023-03-20T13:44:45.647Z,375
2023-03-20T13:46:51.999Z,377
2023-03-20T13:48:57.958Z,377
2023-03-20T13:51:04.598Z,382
2023-03-20T13:53:09.900Z,379
2023-03-20T13:55:15.491Z,379
2023-03-20T13:57:21.604Z,379
2023-03-20T13:59:29.903Z,379
2023-03-20T14:01:35.549Z,378
2023-03-20T14:03:41.556Z,378
2023-03-20T14:05:46.963Z,379
2023-03-20T14:07:53.000Z,379
2023-03-20T14:09:58.449Z,379
2023-03-20T14:12:04.516Z,379
2023-03-20T14:14:10.350Z,375
2023-03-20T14:16:15.957Z,379
2023-03-20T14:18:23.618Z,377
2023-03-20T14:20:30.315Z,378
2023-03-20T14:22:36.885Z,376
2023-03-20T14:24:42.752Z,378
2023-03-20T14:26:48.791Z,378
2023-03-20T14:28:54.592Z,379
2023-03-20T14:31:00.242Z,375
2023-03-20T14:33:06.819Z,374
2023-03-20T14:35:13.041Z,375
2023-03-20T14:37:18.673Z,396
2023-03-20T14:39:25.565Z,394
2023-03-20T14:41:31.626Z,394
2023-03-20T14:43:37.067Z,396
2023-03-20T14:45:43.032Z,394
2023-03-20T14:47:49.499Z,393
2023-03-20T14:49:55.394Z,394
2023-03-20T14:52:01.036Z,396
2023-03-20T14:54:06.840Z,397
2023-03-20T14:56:12.315Z,397
2023-03-20T14:58:18.671Z,397
2023-03-20T15:00:24.316Z,397
2023-03-20T15:02:30.022Z,397
2023-03-20T15:04:35.586Z,394
2023-03-20T15:06:41.409Z,397
2023-03-20T15:08:47.711Z,397
2023-03-20T15:10:54.074Z,397
2023-03-20T15:12:59.987Z,397
2023-03-20T15:15:08.264Z,397
2023-03-20T15:17:14.742Z,397
2023-03-20T15:19:21.823Z,397
2023-03-20T15:21:33.622Z,396
2023-03-20T15:23:41.112Z,396
2023-03-20T15:25:47.321Z,393
2023-03-20T15:27:55.458Z,396
2023-03-20T15:30:02.129Z,396
2023-03-20T15:32:17.405Z,396
2023-03-20T15:34:23.670Z,397
2023-03-20T15:36:30.010Z,397
2023-03-20T15:38:36.572Z,397
2023-03-20T15:40:53.773Z,396
2023-03-20T15:43:01.004Z,396
2023-03-20T15:45:07.111Z,394
2023-03-20T15:47:13.797Z,396
2023-03-20T15:49:20.167Z,396
2023-03-20T15:51:26.390Z,396
2023-03-20T15:53:33.772Z,396
2023-03-20T15:55:40.702Z,396
2023-03-20T15:57:47.934Z,396
2023-03-20T15:59:53.746Z,394
2023-03-20T16:02:00.426Z,396
2023-03-20T16:04:07.309Z,394
2023-03-20T16:06:13.740Z,397
2023-03-20T16:08:23.708Z,396
2023-03-20T16:10:30.370Z,392
2023-03-20T16:12:36.822Z,397
2023-03-20T16:14:42.993Z,397
2023-03-20T16:16:49.663Z,397
2023-03-20T16:18:57.458Z,397
2023-03-20T16:21:05.055Z,397
2023-03-20T16:23:11.635Z,397
2023-03-20T16:25:18.947Z,397
2023-03-20T16:27:25.420Z,397
2023-03-20T16:29:32.077Z,397
2023-03-20T16:31:38.549Z,397
2023-03-20T16:33:45.037Z,397
2023-03-20T16:35:52.154Z,397
2023-03-20T16:37:59.080Z,397
2023-03-20T16:40:06.566Z,397
2023-03-20T16:42:13.565Z,396
2023-03-20T16:44:20.232Z,396
2023-03-20T16:46:27.196Z,396
2023-03-20T16:48:34.085Z,396
2023-03-20T16:50:41.389Z,396
2023-03-20T16:52:48.288Z,397
2023-03-20T16:54:54.788Z,397
2023-03-20T16:57:03.494Z,396
2023-03-20T16:59:10.368Z,397
2023-03-20T17:01:18.137Z,396
2023-03-20T17:03:25.948Z,397
2023-03-20T17:05:37.042Z,397
2023-03-20T17:07:44.294Z,396
2023-03-20T17:09:52.563Z,397
2023-03-20T17:11:59.680Z,396
2023-03-20T17:14:07.812Z,396
2023-03-20T17:16:15.604Z,397
2023-03-20T17:18:22.096Z,397
2023-03-20T17:20:29.440Z,396
2023-03-20T17:22:37.124Z,396
2023-03-20T17:24:44.282Z,396
2023-03-20T17:26:51.418Z,396
2023-03-20T17:28:58.068Z,394
2023-03-20T17:31:06.627Z,396
2023-03-20T17:33:15.854Z,396
2023-03-20T17:35:22.906Z,396
2023-03-20T17:37:34.486Z,396
2023-03-20T17:39:46.383Z,396
2023-03-20T17:41:53.434Z,396
2023-03-20T17:44:04.038Z,396
2023-03-20T17:46:12.573Z,394
2023-03-20T17:48:19.881Z,396
2023-03-20T17:50:29.548Z,396
2023-03-20T17:52:38.407Z,396
2023-03-20T17:54:49.176Z,396
2023-03-20T17:56:56.583Z,396
2023-03-20T17:59:10.201Z,396
2023-03-20T18:01:17.747Z,396
2023-03-20T18:03:30.888Z,396
2023-03-20T18:05:38.513Z,396
2023-03-20T18:07:48.029Z,396
2023-03-20T18:09:55.232Z,394
2023-03-20T18:12:14.322Z,394
2023-03-20T18:14:29.743Z,396
2023-03-20T18:16:44.080Z,396
2023-03-20T18:18:54.294Z,396
2023-03-20T18:21:03.310Z,396
2023-03-20T18:23:13.110Z,396
2023-03-20T18:25:24.637Z,396
2023-03-20T18:27:33.756Z,396
2023-03-20T18:29:43.284Z,396
2023-03-20T18:31:52.558Z,396
2023-03-20T18:34:02.006Z,396
2023-03-20T18:36:13.311Z,396
2023-03-20T18:38:22.752Z,396
2023-03-20T18:40:32.575Z,396
2023-03-20T18:42:42.847Z,396
2023-03-20T18:44:51.942Z,396
2023-03-20T18:47:03.625Z,396
2023-03-20T18:49:13.004Z,397
2023-03-20T18:51:22.061Z,396
2023-03-20T18:53:30.000Z,396
2023-03-20T18:55:40.250Z,396
2023-03-20T18:57:54.555Z,396
2023-03-20T19:00:06.008Z,396
2023-03-20T19:02:18.736Z,396
2023-03-20T19:04:34.482Z,396
2023-03-20T19:06:44.365Z,396
2023-03-20T19:08:52.774Z,396
2023-03-20T19:11:02.933Z,396
2023-03-20T19:13:12.849Z,396
2023-03-20T19:15:37.715Z,396
2023-03-20T19:17:49.605Z,396
2023-03-20T19:20:04.955Z,396
2023-03-20T19:22:32.758Z,396
2023-03-20T19:24:42.417Z,396
2023-03-20T19:26:54.292Z,396
2023-03-20T19:29:08.448Z,396
2023-03-20T19:31:22.562Z,396
2023-03-20T19:33:35.100Z,396
2023-03-20T19:36:08.294Z,396
2023-03-20T19:38:19.258Z,396
2023-03-20T19:40:34.400Z,396
2023-03-20T19:43:09.608Z,396
2023-03-20T19:45:22.847Z,396
2023-03-20T19:47:31.960Z,396
2023-03-20T19:49:48.497Z,396
2023-03-20T19:52:02.518Z,396
2023-03-20T19:54:13.144Z,394
2023-03-20T19:56:22.986Z,393
2023-03-20T19:58:39.957Z,393
2023-03-20T20:01:13.232Z,393
2023-03-20T20:03:26.097Z,393
2023-03-20T20:05:34.972Z,392
2023-03-20T20:08:48.947Z,393
2023-03-20T20:10:59.352Z,393
2023-03-20T20:13:11.782Z,393
2023-03-20T20:15:22.104Z,393
2023-03-20T20:17:38.281Z,393
2023-03-20T20:19:49.401Z,393
2023-03-20T20:22:31.432Z,393
2023-03-20T20:24:40.075Z,393
2023-03-20T20:27:18.801Z,393
2023-03-20T20:29:28.606Z,393
2023-03-20T20:31:38.084Z,393
2023-03-20T20:35:40.460Z,393
2023-03-20T20:38:56.709Z,393
2023-03-20T20:41:05.788Z,393
2023-03-20T20:44:14.935Z,393
2023-03-20T20:46:24.999Z,393
2023-03-20T20:48:34.218Z,393
2023-03-20T20:50:44.143Z,394
2023-03-20T20:52:53.508Z,394
2023-03-20T20:55:26.640Z,394
2023-03-20T20:57:35.480Z,394
2023-03-20T20:59:43.202Z,393
2023-03-20T21:01:51.624Z,394
2023-03-20T21:04:02.742Z,394
2023-03-20T21:06:11.309Z,394
2023-03-20T21:08:19.848Z,393
2023-03-20T21:10:27.323Z,394
2023-03-20T21:13:01.022Z,394
2023-03-20T21:15:07.500Z,394
2023-03-20T21:17:15.363Z,394
2023-03-20T21:19:23.245Z,394
2023-03-20T21:21:30.620Z,393
2023-03-20T21:23:38.717Z,394
2023-03-20T21:25:52.652Z,394
2023-03-20T21:28:04.588Z,394
2023-03-20T21:30:13.787Z,393
2023-03-20T21:32:21.581Z,393
2023-03-20T21:34:27.724Z,394
2023-03-20T21:36:35.783Z,394
2023-03-20T21:39:12.539Z,394
2023-03-20T21:41:20.129Z,394
2023-03-20T21:43:29.423Z,394
2023-03-20T22:01:29.352Z,393
2023-03-20T22:18:45.503Z,393
2023-03-20T22:42:53.172Z,392
2023-03-20T22:46:08.066Z,393
2023-03-20T22:48:51.688Z,393
2023-03-20T22:53:39.831Z,392
2023-03-20T22:55:45.178Z,392
2023-03-20T22:58:09.514Z,392
2023-03-20T23:00:15.049Z,391
2023-03-20T23:02:20.321Z,393
2023-03-20T23:04:27.442Z,393
2023-03-20T23:06:35.669Z,393
2023-03-20T23:09:02.395Z,393
2023-03-20T23:11:18.944Z,393
2023-03-20T23:13:25.356Z,393
2023-03-20T23:15:30.700Z,394
2023-03-20T23:17:36.072Z,394
2023-03-20T23:20:10.697Z,394
2023-03-20T23:22:25.119Z,394
2023-03-20T23:24:32.697Z,394
2023-03-20T23:26:38.022Z,394
2023-03-20T23:28:43.602Z,394
2023-03-20T23:31:12.049Z,394
2023-03-20T23:33:18.913Z,394
2023-03-20T23:35:26.423Z,394
2023-03-20T23:37:32.532Z,391
2023-03-20T23:39:38.082Z,390
2023-03-20T23:42:31.193Z,391
2023-03-20T23:44:49.871Z,391
2023-03-20T23:47:25.633Z,391
2023-03-20T23:49:37.061Z,390
2023-03-20T23:51:42.525Z,389
2023-03-20T23:53:48.725Z,388
2023-03-20T23:55:54.616Z,391
2023-03-20T23:58:00.127Z,390
